sensor_id;sensor_type;location;lat;lon;timestamp;pressure;altitude;pressure_sealevel;temperature;humidity
60437;BME280;46289;51.992;4.498;2023-04-09T00:01:42;102811.31;;;6.53;92.63
60437;BME280;46289;51.992;4.498;2023-04-09T00:03:47;102812.13;;;6.52;92.43
60437;BME280;46289;51.992;4.498;2023-04-09T00:05:52;102814.78;;;6.55;92.32
60437;BME280;46289;51.992;4.498;2023-04-09T00:07:57;102820.00;;;6.54;92.58
60437;BME280;46289;51.992;4.498;2023-04-09T00:10:03;102816.50;;;6.50;92.25
60437;BME280;46289;51.992;4.498;2023-04-09T00:12:08;102816.47;;;6.49;92.43
60437;BME280;46289;51.992;4.498;2023-04-09T00:14:14;102814.75;;;6.52;92.47
60437;BME280;46289;51.992;4.498;2023-04-09T00:16:21;102820.84;;;6.51;92.33
60437;BME280;46289;51.992;4.498;2023-04-09T00:18:27;102818.22;;;6.50;92.59
60437;BME280;46289;51.992;4.498;2023-04-09T00:20:32;102815.63;;;6.51;93.20
60437;BME280;46289;51.992;4.498;2023-04-09T00:22:37;102820.88;;;6.54;92.84
60437;BME280;46289;51.992;4.498;2023-04-09T00:24:43;102811.31;;;6.53;92.89
60437;BME280;46289;51.992;4.498;2023-04-09T00:26:48;102813.91;;;6.55;93.03
60437;BME280;46289;51.992;4.498;2023-04-09T00:28:54;102819.13;;;6.53;93.31
60437;BME280;46289;51.992;4.498;2023-04-09T00:30:59;102809.53;;;6.52;92.83
60437;BME280;46289;51.992;4.498;2023-04-09T00:33:07;102811.28;;;6.52;93.10
60437;BME280;46289;51.992;4.498;2023-04-09T00:35:12;102806.91;;;6.52;93.01
60437;BME280;46289;51.992;4.498;2023-04-09T00:37:18;102806.06;;;6.52;93.49
60437;BME280;46289;51.992;4.498;2023-04-09T00:39:23;102815.66;;;6.54;93.25
60437;BME280;46289;51.992;4.498;2023-04-09T00:41:28;102806.06;;;6.52;93.76
60437;BME280;46289;51.992;4.498;2023-04-09T00:43:36;102802.53;;;6.45;94.03
60437;BME280;46289;51.992;4.498;2023-04-09T00:45:42;102799.00;;;6.45;93.44
60437;BME280;46289;51.992;4.498;2023-04-09T00:47:48;102797.31;;;6.45;93.80
60437;BME280;46289;51.992;4.498;2023-04-09T00:49:56;102802.47;;;6.42;94.04
60437;BME280;46289;51.992;4.498;2023-04-09T00:52:01;102792.88;;;6.35;93.78
60437;BME280;46289;51.992;4.498;2023-04-09T00:54:06;102792.84;;;6.32;93.50
60437;BME280;46289;51.992;4.498;2023-04-09T00:56:14;102796.28;;;6.28;92.99
60437;BME280;46289;51.992;4.498;2023-04-09T00:58:21;102790.13;;;6.23;92.92
60437;BME280;46289;51.992;4.498;2023-04-09T01:00:28;102792.69;;;6.15;92.68
60437;BME280;46289;51.992;4.498;2023-04-09T01:02:33;102790.84;;;6.08;93.09
60437;BME280;46289;51.992;4.498;2023-04-09T01:04:40;102783.88;;;6.04;93.22
60437;BME280;46289;51.992;4.498;2023-04-09T01:06:52;102795.97;;;5.97;92.47
60437;BME280;46289;51.992;4.498;2023-04-09T01:09:02;102792.41;;;5.92;93.85
60437;BME280;46289;51.992;4.498;2023-04-09T01:11:19;102796.72;;;5.85;93.29
60437;BME280;46289;51.992;4.498;2023-04-09T01:13:29;102787.06;;;5.77;93.10
60437;BME280;46289;51.992;4.498;2023-04-09T01:15:44;102789.59;;;5.72;93.54
60437;BME280;46289;51.992;4.498;2023-04-09T01:17:53;102793.97;;;5.71;93.86
60437;BME280;46289;51.992;4.498;2023-04-09T01:20:04;102795.63;;;5.66;93.25
60437;BME280;46289;51.992;4.498;2023-04-09T01:22:27;102795.53;;;5.60;93.19
60437;BME280;46289;51.992;4.498;2023-04-09T01:24:39;102794.69;;;5.60;94.07
60437;BME280;46289;51.992;4.498;2023-04-09T01:26:55;102805.13;;;5.58;94.71
60437;BME280;46289;51.992;4.498;2023-04-09T01:29:06;102803.28;;;5.53;94.25
60437;BME280;46289;51.992;4.498;2023-04-09T01:31:14;102791.13;;;5.55;95.25
60437;BME280;46289;51.992;4.498;2023-04-09T01:33:23;102802.34;;;5.47;94.22
60437;BME280;46289;51.992;4.498;2023-04-09T01:35:32;102802.31;;;5.44;94.64
60437;BME280;46289;51.992;4.498;2023-04-09T01:37:38;102803.19;;;5.45;95.34
60437;BME280;46289;51.992;4.498;2023-04-09T01:39:48;102797.97;;;5.43;93.88
60437;BME280;46289;51.992;4.498;2023-04-09T01:41:54;102804.88;;;5.41;93.74
60437;BME280;46289;51.992;4.498;2023-04-09T01:44:00;102800.50;;;5.39;93.64
60437;BME280;46289;51.992;4.498;2023-04-09T01:46:09;102801.34;;;5.36;93.07
60437;BME280;46289;51.992;4.498;2023-04-09T01:48:16;102805.69;;;5.36;93.18
60437;BME280;46289;51.992;4.498;2023-04-09T01:50:22;102798.66;;;5.32;93.66
60437;BME280;46289;51.992;4.498;2023-04-09T01:52:27;102800.44;;;5.33;93.85
60437;BME280;46289;51.992;4.498;2023-04-09T01:54:32;102797.81;;;5.30;93.92
60437;BME280;46289;51.992;4.498;2023-04-09T01:56:42;102792.56;;;5.28;93.69
60437;BME280;46289;51.992;4.498;2023-04-09T01:58:47;102788.19;;;5.25;94.76
60437;BME280;46289;51.992;4.498;2023-04-09T02:00:57;102791.66;;;5.24;94.94
60437;BME280;46289;51.992;4.498;2023-04-09T02:03:09;102796.84;;;5.21;94.17
60437;BME280;46289;51.992;4.498;2023-04-09T02:05:19;102789.81;;;5.17;94.06
60437;BME280;46289;51.992;4.498;2023-04-09T02:07:34;102801.13;;;5.19;94.41
60437;BME280;46289;51.992;4.498;2023-04-09T02:09:47;102798.53;;;5.19;94.35
60437;BME280;46289;51.992;4.498;2023-04-09T02:11:53;102800.28;;;5.20;94.83
60437;BME280;46289;51.992;4.498;2023-04-09T02:14:01;102792.41;;;5.17;94.65
60437;BME280;46289;51.992;4.498;2023-04-09T02:16:10;102788.94;;;5.17;95.10
60437;BME280;46289;51.992;4.498;2023-04-09T02:18:25;102787.16;;;5.16;94.72
60437;BME280;46289;51.992;4.498;2023-04-09T02:20:31;102782.81;;;5.15;95.02
60437;BME280;46289;51.992;4.498;2023-04-09T02:22:36;102788.16;;;5.22;94.88
60437;BME280;46289;51.992;4.498;2023-04-09T02:24:43;102781.22;;;5.26;95.27
60437;BME280;46289;51.992;4.498;2023-04-09T02:26:52;102781.31;;;5.32;95.73
60437;BME280;46289;51.992;4.498;2023-04-09T02:29:05;102775.22;;;5.32;95.26
60437;BME280;46289;51.992;4.498;2023-04-09T02:31:38;102772.59;;;5.32;95.46
60437;BME280;46289;51.992;4.498;2023-04-09T02:36:35;102768.28;;;5.34;95.31
60437;BME280;46289;51.992;4.498;2023-04-09T02:39:04;102776.13;;;5.34;95.15
60437;BME280;46289;51.992;4.498;2023-04-09T02:44:33;102772.69;;;5.38;95.60
60437;BME280;46289;51.992;4.498;2023-04-09T02:47:00;102770.06;;;5.36;95.15
60437;BME280;46289;51.992;4.498;2023-04-09T02:49:27;102759.66;;;5.38;95.15
60437;BME280;46289;51.992;4.498;2023-04-09T02:52:25;102766.66;;;5.40;95.28
60437;BME280;46289;51.992;4.498;2023-04-09T02:54:45;102761.41;;;5.39;95.29
60437;BME280;46289;51.992;4.498;2023-04-09T02:57:25;102753.63;;;5.40;95.48
60437;BME280;46289;51.992;4.498;2023-04-09T02:59:57;102756.25;;;5.43;95.65
60437;BME280;46289;51.992;4.498;2023-04-09T03:02:27;102751.91;;;5.44;95.59
60437;BME280;46289;51.992;4.498;2023-04-09T03:05:16;102751.94;;;5.47;95.34
60437;BME280;46289;51.992;4.498;2023-04-09T03:10:34;102749.44;;;5.58;95.39
60437;BME280;46289;51.992;4.498;2023-04-09T03:13:05;102749.56;;;5.68;95.68
60437;BME280;46289;51.992;4.498;2023-04-09T03:16:00;102748.78;;;5.76;95.48
60437;BME280;46289;51.992;4.498;2023-04-09T03:19:04;102747.09;;;5.84;95.62
60437;BME280;46289;51.992;4.498;2023-04-09T03:21:54;102741.97;;;5.90;95.53
60437;BME280;46289;51.992;4.498;2023-04-09T03:24:40;102738.56;;;5.97;95.59
60437;BME280;46289;51.992;4.498;2023-04-09T03:29:54;102736.09;;;6.11;95.78
60437;BME280;46289;51.992;4.498;2023-04-09T03:32:42;102730.91;;;6.14;95.90
60437;BME280;46289;51.992;4.498;2023-04-09T03:35:01;102731.88;;;6.27;95.79
60437;BME280;46289;51.992;4.498;2023-04-09T03:37:33;102725.09;;;6.52;96.27
60437;BME280;46289;51.992;4.498;2023-04-09T03:39:59;102722.59;;;6.76;95.59
60437;BME280;46289;51.992;4.498;2023-04-09T03:42:34;102720.94;;;6.86;95.35
60437;BME280;46289;51.992;4.498;2023-04-09T03:44:55;102721.88;;;7.05;94.94
60437;BME280;46289;51.992;4.498;2023-04-09T03:47:30;102724.56;;;7.17;93.90
60437;BME280;46289;51.992;4.498;2023-04-09T03:50:13;102721.09;;;7.28;93.89
60437;BME280;46289;51.992;4.498;2023-04-09T03:53:32;102723.75;;;7.32;93.40
60437;BME280;46289;51.992;4.498;2023-04-09T03:56:15;102719.41;;;7.36;93.37
60437;BME280;46289;51.992;4.498;2023-04-09T03:59:23;102716.78;;;7.40;93.17
60437;BME280;46289;51.992;4.498;2023-04-09T04:02:22;102722.03;;;7.46;92.98
60437;BME280;46289;51.992;4.498;2023-04-09T04:04:42;102722.03;;;7.53;92.83
60437;BME280;46289;51.992;4.498;2023-04-09T04:06:53;102722.91;;;7.52;92.31
60437;BME280;46289;51.992;4.498;2023-04-09T04:09:42;102721.22;;;7.58;92.44
60437;BME280;46289;51.992;4.498;2023-04-09T04:15:02;102716.84;;;7.56;92.42
60437;BME280;46289;51.992;4.498;2023-04-09T04:17:52;102713.34;;;7.63;92.25
60437;BME280;46289;51.992;4.498;2023-04-09T04:20:25;102715.09;;;7.62;92.16
60437;BME280;46289;51.992;4.498;2023-04-09T04:23:15;102709.00;;;7.68;91.82
60437;BME280;46289;51.992;4.498;2023-04-09T04:25:56;102710.75;;;7.74;91.80
60437;BME280;46289;51.992;4.498;2023-04-09T04:28:35;102708.13;;;7.75;91.51
60437;BME280;46289;51.992;4.498;2023-04-09T04:31:12;102703.78;;;7.76;91.33
60437;BME280;46289;51.992;4.498;2023-04-09T04:33:42;102702.91;;;7.75;91.28
60437;BME280;46289;51.992;4.498;2023-04-09T04:36:12;102711.63;;;7.77;91.34
60437;BME280;46289;51.992;4.498;2023-04-09T04:38:29;102709.00;;;7.89;90.91
60437;BME280;46289;51.992;4.498;2023-04-09T04:44:07;102709.00;;;7.89;90.69
60437;BME280;46289;51.992;4.498;2023-04-09T04:46:51;102711.63;;;8.08;88.89
60437;BME280;46289;51.992;4.498;2023-04-09T04:52:28;102710.78;;;8.07;89.26
60437;BME280;46289;51.992;4.498;2023-04-09T04:55:12;102712.53;;;8.01;89.39
60437;BME280;46289;51.992;4.498;2023-04-09T04:57:37;102723.84;;;7.97;89.80
60437;BME280;46289;51.992;4.498;2023-04-09T05:00:35;102729.97;;;7.96;89.98
60437;BME280;46289;51.992;4.498;2023-04-09T05:03:00;102732.59;;;7.94;89.77
60437;BME280;46289;51.992;4.498;2023-04-09T05:05:36;102738.69;;;7.91;90.51
60437;BME280;46289;51.992;4.498;2023-04-09T05:08:06;102735.22;;;7.91;90.20
60437;BME280;46289;51.992;4.498;2023-04-09T05:10:42;102736.94;;;7.90;90.56
60437;BME280;46289;51.992;4.498;2023-04-09T05:13:03;102735.19;;;7.89;90.55
60437;BME280;46289;51.992;4.498;2023-04-09T05:15:55;102732.59;;;7.91;90.43
60437;BME280;46289;51.992;4.498;2023-04-09T05:18:34;102732.56;;;7.89;90.61
60437;BME280;46289;51.992;4.498;2023-04-09T05:21:16;102736.06;;;7.91;90.75
60437;BME280;46289;51.992;4.498;2023-04-09T05:24:22;102724.75;;;7.93;90.53
60437;BME280;46289;51.992;4.498;2023-04-09T05:27:19;102723.88;;;7.94;91.10
60437;BME280;46289;51.992;4.498;2023-04-09T05:30:00;102729.09;;;8.00;90.77
60437;BME280;46289;51.992;4.498;2023-04-09T05:33:01;102725.63;;;8.01;90.53
60437;BME280;46289;51.992;4.498;2023-04-09T05:35:47;102730.00;;;8.11;89.98
60437;BME280;46289;51.992;4.498;2023-04-09T05:38:24;102729.09;;;8.15;89.66
60437;BME280;46289;51.992;4.498;2023-04-09T05:41:16;102729.09;;;8.18;89.36
60437;BME280;46289;51.992;4.498;2023-04-09T05:43:52;102732.59;;;8.20;89.23
60437;BME280;46289;51.992;4.498;2023-04-09T05:46:27;102732.59;;;8.23;89.18
60437;BME280;46289;51.992;4.498;2023-04-09T05:52:30;102729.09;;;8.32;88.55
60437;BME280;46289;51.992;4.498;2023-04-09T05:54:56;102734.34;;;8.33;88.69
60437;BME280;46289;51.992;4.498;2023-04-09T06:00:25;102728.22;;;8.42;88.39
60437;BME280;46289;51.992;4.498;2023-04-09T06:06:05;102731.75;;;8.43;88.26
60437;BME280;46289;51.992;4.498;2023-04-09T06:08:45;102734.34;;;8.40;88.18
60437;BME280;46289;51.992;4.498;2023-04-09T06:11:24;102730.88;;;8.45;88.32
60437;BME280;46289;51.992;4.498;2023-04-09T06:14:16;102730.88;;;8.48;88.30
60437;BME280;46289;51.992;4.498;2023-04-09T06:17:00;102734.34;;;8.50;87.85
60437;BME280;46289;51.992;4.498;2023-04-09T06:19:27;102730.84;;;8.53;87.61
60437;BME280;46289;51.992;4.498;2023-04-09T06:22:04;102741.31;;;8.53;87.88
60437;BME280;46289;51.992;4.498;2023-04-09T06:25:25;102735.22;;;8.57;88.04
60437;BME280;46289;51.992;4.498;2023-04-09T06:27:43;102729.09;;;8.61;87.40
60437;BME280;46289;51.992;4.498;2023-04-09T06:29:48;102736.97;;;8.61;87.17
60437;BME280;46289;51.992;4.498;2023-04-09T06:31:53;102736.94;;;8.64;87.29
60437;BME280;46289;51.992;4.498;2023-04-09T06:33:58;102743.06;;;8.66;87.03
60437;BME280;46289;51.992;4.498;2023-04-09T06:36:04;102742.16;;;8.70;86.65
60437;BME280;46289;51.992;4.498;2023-04-09T06:38:12;102746.53;;;8.68;86.91
60437;BME280;46289;51.992;4.498;2023-04-09T06:40:22;102743.94;;;8.70;86.95
60437;BME280;46289;51.992;4.498;2023-04-09T06:42:27;102752.66;;;8.78;86.88
60437;BME280;46289;51.992;4.498;2023-04-09T06:44:32;102750.03;;;8.70;86.97
60437;BME280;46289;51.992;4.498;2023-04-09T06:46:37;102749.16;;;8.70;87.21
60437;BME280;46289;51.992;4.498;2023-04-09T06:49:12;102743.91;;;8.68;87.14
60437;BME280;46289;51.992;4.498;2023-04-09T06:51:57;102745.66;;;8.80;87.06
60437;BME280;46289;51.992;4.498;2023-04-09T06:54:25;102749.16;;;8.82;86.91
60437;BME280;46289;51.992;4.498;2023-04-09T06:57:17;102748.28;;;8.80;86.95
60437;BME280;46289;51.992;4.498;2023-04-09T07:02:43;102748.25;;;8.82;87.20
60437;BME280;46289;51.992;4.498;2023-04-09T07:04:49;102749.13;;;8.87;86.33
60437;BME280;46289;51.992;4.498;2023-04-09T07:06:54;102744.72;;;8.92;86.53
60437;BME280;46289;51.992;4.498;2023-04-09T07:09:00;102744.72;;;8.96;85.99
60437;BME280;46289;51.992;4.498;2023-04-09T07:11:05;102742.97;;;8.94;86.35
60437;BME280;46289;51.992;4.498;2023-04-09T07:13:16;102742.09;;;8.95;86.46
60437;BME280;46289;51.992;4.498;2023-04-09T07:15:27;102741.25;;;8.96;86.15
60437;BME280;46289;51.992;4.498;2023-04-09T07:17:32;102742.09;;;8.96;86.09
60437;BME280;46289;51.992;4.498;2023-04-09T07:19:38;102740.34;;;8.97;86.37
60437;BME280;46289;51.992;4.498;2023-04-09T07:21:44;102741.25;;;8.96;86.40
60437;BME280;46289;51.992;4.498;2023-04-09T07:23:49;102743.81;;;9.07;85.15
60437;BME280;46289;51.992;4.498;2023-04-09T07:25:56;102746.41;;;9.08;84.80
60437;BME280;46289;51.992;4.498;2023-04-09T07:28:01;102743.78;;;9.08;84.52
60437;BME280;46289;51.992;4.498;2023-04-09T07:30:10;102744.66;;;9.10;84.45
60437;BME280;46289;51.992;4.498;2023-04-09T07:32:18;102749.03;;;9.13;84.31
60437;BME280;46289;51.992;4.498;2023-04-09T07:34:23;102747.28;;;9.16;84.34
60437;BME280;46289;51.992;4.498;2023-04-09T07:36:28;102746.41;;;9.08;83.93
60437;BME280;46289;51.992;4.498;2023-04-09T07:38:33;102742.91;;;9.17;83.91
60437;BME280;46289;51.992;4.498;2023-04-09T07:40:38;102746.44;;;9.10;83.76
60437;BME280;46289;51.992;4.498;2023-04-09T07:42:44;102743.75;;;9.20;83.44
60437;BME280;46289;51.992;4.498;2023-04-09T07:44:52;102746.41;;;9.16;82.85
60437;BME280;46289;51.992;4.498;2023-04-09T07:47:08;102746.44;;;9.11;82.96
60437;BME280;46289;51.992;4.498;2023-04-09T07:52:38;102746.41;;;9.17;83.25
60437;BME280;46289;51.992;4.498;2023-04-09T07:55:19;102739.38;;;9.22;82.57
60437;BME280;46289;51.992;4.498;2023-04-09T07:58:13;102750.75;;;9.21;82.88
60437;BME280;46289;51.992;4.498;2023-04-09T08:00:30;102742.00;;;9.27;83.04
60437;BME280;46289;51.992;4.498;2023-04-09T08:03:01;102739.38;;;9.27;82.29
60437;BME280;46289;51.992;4.498;2023-04-09T08:05:39;102736.75;;;9.21;82.47
60437;BME280;46289;51.992;4.498;2023-04-09T08:08:17;102745.50;;;9.18;82.46
60437;BME280;46289;51.992;4.498;2023-04-09T08:11:33;102743.78;;;9.22;81.89
60437;BME280;46289;51.992;4.498;2023-04-09T08:14:01;102744.63;;;9.22;81.57
60437;BME280;46289;51.992;4.498;2023-04-09T08:16:27;102746.38;;;9.23;81.76
60437;BME280;46289;51.992;4.498;2023-04-09T08:19:10;102749.91;;;9.19;81.92
60437;BME280;46289;51.992;4.498;2023-04-09T08:25:16;102752.50;;;9.18;81.87
60437;BME280;46289;51.992;4.498;2023-04-09T08:28:00;102746.34;;;9.30;81.46
60437;BME280;46289;51.992;4.498;2023-04-09T08:30:32;102749.00;;;9.16;81.50
60437;BME280;46289;51.992;4.498;2023-04-09T08:33:09;102750.75;;;9.20;81.58
60437;BME280;46289;51.992;4.498;2023-04-09T08:35:35;102759.56;;;9.11;81.65
60437;BME280;46289;51.992;4.498;2023-04-09T08:41:20;102762.16;;;9.14;81.28
60437;BME280;46289;51.992;4.498;2023-04-09T08:43:45;102759.53;;;9.19;81.88
60437;BME280;46289;51.992;4.498;2023-04-09T08:46:03;102759.47;;;9.23;81.95
60437;BME280;46289;51.992;4.498;2023-04-09T08:48:12;102755.97;;;9.29;81.39
60437;BME280;46289;51.992;4.498;2023-04-09T08:50:18;102759.47;;;9.30;81.20
60437;BME280;46289;51.992;4.498;2023-04-09T08:52:32;102758.59;;;9.31;81.28
60437;BME280;46289;51.992;4.498;2023-04-09T08:54:37;102764.72;;;9.28;81.49
60437;BME280;46289;51.992;4.498;2023-04-09T08:56:47;102754.22;;;9.27;82.07
60437;BME280;46289;51.992;4.498;2023-04-09T08:58:54;102756.84;;;9.33;80.96
60437;BME280;46289;51.992;4.498;2023-04-09T09:01:00;102751.59;;;9.31;81.54
60437;BME280;46289;51.992;4.498;2023-04-09T09:03:10;102752.47;;;9.30;80.83
60437;BME280;46289;51.992;4.498;2023-04-09T09:05:16;102750.72;;;9.28;81.04
60437;BME280;46289;51.992;4.498;2023-04-09T09:07:21;102752.44;;;9.32;81.29
60437;BME280;46289;51.992;4.498;2023-04-09T09:09:29;102751.59;;;9.28;80.92
60437;BME280;46289;51.992;4.498;2023-04-09T09:11:35;102755.97;;;9.31;81.07
60437;BME280;46289;51.992;4.498;2023-04-09T09:13:55;102758.56;;;9.34;81.31
60437;BME280;46289;51.992;4.498;2023-04-09T09:16:17;102761.19;;;9.35;81.39
60437;BME280;46289;51.992;4.498;2023-04-09T09:18:40;102754.19;;;9.34;81.00
60437;BME280;46289;51.992;4.498;2023-04-09T09:20:55;102759.38;;;9.45;80.48
60437;BME280;46289;51.992;4.498;2023-04-09T09:23:43;102755.06;;;9.38;80.61
60437;BME280;46289;51.992;4.498;2023-04-09T09:26:10;102752.41;;;9.39;80.32
60437;BME280;46289;51.992;4.498;2023-04-09T09:28:18;102749.81;;;9.38;80.27
60437;BME280;46289;51.992;4.498;2023-04-09T09:30:25;102743.69;;;9.40;80.15
60437;BME280;46289;51.992;4.498;2023-04-09T09:32:30;102742.75;;;9.49;80.37
60437;BME280;46289;51.992;4.498;2023-04-09T09:34:35;102741.00;;;9.45;80.31
60437;BME280;46289;51.992;4.498;2023-04-09T09:36:41;102744.50;;;9.47;80.94
60437;BME280;46289;51.992;4.498;2023-04-09T09:38:53;102737.47;;;9.52;80.48
60437;BME280;46289;51.992;4.498;2023-04-09T09:41:18;102741.84;;;9.56;80.08
60437;BME280;46289;51.992;4.498;2023-04-09T09:43:23;102737.41;;;9.64;79.72
60437;BME280;46289;51.992;4.498;2023-04-09T09:45:29;102729.50;;;9.66;79.71
60437;BME280;46289;51.992;4.498;2023-04-09T09:47:34;102730.34;;;9.73;80.18
60437;BME280;46289;51.992;4.498;2023-04-09T09:49:40;102734.69;;;9.78;79.67
60437;BME280;46289;51.992;4.498;2023-04-09T09:51:48;102730.34;;;9.71;79.30
60437;BME280;46289;51.992;4.498;2023-04-09T09:53:54;102727.72;;;9.77;78.89
60437;BME280;46289;51.992;4.498;2023-04-09T09:56:01;102725.94;;;9.81;78.80
60437;BME280;46289;51.992;4.498;2023-04-09T09:58:18;102722.34;;;9.91;78.39
60437;BME280;46289;51.992;4.498;2023-04-09T10:00:31;102723.19;;;9.96;77.85
60437;BME280;46289;51.992;4.498;2023-04-09T10:02:55;102720.53;;;9.99;76.90
60437;BME280;46289;51.992;4.498;2023-04-09T10:05:29;102712.63;;;10.04;76.95
60437;BME280;46289;51.992;4.498;2023-04-09T10:07:37;102709.88;;;10.16;76.68
60437;BME280;46289;51.992;4.498;2023-04-09T10:09:49;102707.16;;;10.31;76.33
60437;BME280;46289;51.992;4.498;2023-04-09T10:12:33;102707.97;;;10.38;76.17
60437;BME280;46289;51.992;4.498;2023-04-09T10:14:54;102708.72;;;10.51;75.92
60437;BME280;46289;51.992;4.498;2023-04-09T10:17:02;102711.31;;;10.54;75.23
60437;BME280;46289;51.992;4.498;2023-04-09T10:19:19;102710.38;;;10.60;75.35
60437;BME280;46289;51.992;4.498;2023-04-09T10:21:42;102706.72;;;10.73;75.12
60437;BME280;46289;51.992;4.498;2023-04-09T10:24:03;102703.28;;;10.69;74.56
60437;BME280;46289;51.992;4.498;2023-04-09T10:26:13;102699.66;;;10.78;74.79
60437;BME280;46289;51.992;4.498;2023-04-09T10:28:51;102696.00;;;10.91;74.21
60437;BME280;46289;51.992;4.498;2023-04-09T10:31:30;102690.63;;;11.01;73.53
60437;BME280;46289;51.992;4.498;2023-04-09T10:33:49;102685.09;;;11.22;72.59
60437;BME280;46289;51.992;4.498;2023-04-09T10:36:09;102680.38;;;11.46;72.87
60437;BME280;46289;51.992;4.498;2023-04-09T10:38:44;102673.97;;;11.62;71.89
60437;BME280;46289;51.992;4.498;2023-04-09T10:40:55;102673.69;;;11.80;70.61
60437;BME280;46289;51.992;4.498;2023-04-09T10:43:00;102674.44;;;11.89;70.05
60437;BME280;46289;51.992;4.498;2023-04-09T10:45:07;102670.84;;;11.93;68.78
60437;BME280;46289;51.992;4.498;2023-04-09T10:48:02;102659.91;;;12.16;69.82
60437;BME280;46289;51.992;4.498;2023-04-09T10:50:17;102671.81;;;11.89;69.02
60437;BME280;46289;51.992;4.498;2023-04-09T10:52:29;102659.44;;;11.94;69.93
60437;BME280;46289;51.992;4.498;2023-04-09T10:55:00;102664.34;;;12.15;70.14
60437;BME280;46289;51.992;4.498;2023-04-09T10:58:19;102660.22;;;12.47;69.25
60437;BME280;46289;51.992;4.498;2023-04-09T11:16:56;102630.19;;;13.36;65.33
60437;BME280;46289;51.992;4.498;2023-04-09T11:19:03;102630.81;;;13.48;64.41
60437;BME280;46289;51.992;4.498;2023-04-09T11:24:06;102631.72;;;14.17;62.72
60437;BME280;46289;51.992;4.498;2023-04-09T11:26:12;102625.34;;;14.24;61.85
60437;BME280;46289;51.992;4.498;2023-04-09T11:28:19;102626.91;;;13.98;61.92
60437;BME280;46289;51.992;4.498;2023-04-09T11:43:00;102610.50;;;15.39;58.18
60437;BME280;46289;51.992;4.498;2023-04-09T11:51:26;102614.25;;;15.31;58.66
60437;BME280;46289;51.992;4.498;2023-04-09T11:53:54;102603.06;;;15.22;57.70
60437;BME280;46289;51.992;4.498;2023-04-09T11:55:59;102603.25;;;14.87;58.87
60437;BME280;46289;51.992;4.498;2023-04-09T11:58:10;102598.34;;;15.03;59.03
60437;BME280;46289;51.992;4.498;2023-04-09T12:00:34;102604.09;;;15.18;58.55
60437;BME280;46289;51.992;4.498;2023-04-09T12:05:26;102597.28;;;15.37;58.03
60437;BME280;46289;51.992;4.498;2023-04-09T12:07:32;102601.97;;;15.01;57.79
60437;BME280;46289;51.992;4.498;2023-04-09T12:09:46;102600.94;;;15.06;57.28
60437;BME280;46289;51.992;4.498;2023-04-09T12:11:52;102601.50;;;15.43;57.65
60437;BME280;46289;51.992;4.498;2023-04-09T12:14:11;102592.75;;;15.14;57.96
60437;BME280;46289;51.992;4.498;2023-04-09T12:16:57;102599.53;;;15.49;58.96
60437;BME280;46289;51.992;4.498;2023-04-09T12:19:28;102586.44;;;15.45;57.69
60437;BME280;46289;51.992;4.498;2023-04-09T12:21:50;102587.00;;;15.28;57.86
60437;BME280;46289;51.992;4.498;2023-04-09T12:23:56;102590.69;;;14.96;59.74
60437;BME280;46289;51.992;4.498;2023-04-09T12:26:01;102585.28;;;14.99;58.63
60437;BME280;46289;51.992;4.498;2023-04-09T12:28:17;102585.28;;;15.53;58.56
60437;BME280;46289;51.992;4.498;2023-04-09T12:50:12;102591.03;;;15.40;55.98
60437;BME280;46289;51.992;4.498;2023-04-09T12:53:53;102581.88;;;15.22;55.91
60437;BME280;46289;51.992;4.498;2023-04-09T13:00:03;102583.69;;;15.48;54.99
60437;BME280;46289;51.992;4.498;2023-04-09T13:02:39;102574.25;;;16.17;54.70
60437;BME280;46289;51.992;4.498;2023-04-09T13:21:06;102563.34;;;16.01;54.16
60437;BME280;46289;51.992;4.498;2023-04-09T13:23:18;102565.06;;;16.02;54.22
60437;BME280;46289;51.992;4.498;2023-04-09T13:34:37;102536.72;;;16.97;52.06
60437;BME280;46289;51.992;4.498;2023-04-09T13:37:36;102535.69;;;17.22;51.42
60437;BME280;46289;51.992;4.498;2023-04-09T13:39:46;102529.66;;;17.18;49.66
60437;BME280;46289;51.992;4.498;2023-04-09T13:41:56;102529.59;;;16.98;51.13
60437;BME280;46289;51.992;4.498;2023-04-09T13:44:18;102528.63;;;17.00;50.66
60437;BME280;46289;51.992;4.498;2023-04-09T13:46:24;102527.63;;;16.81;51.85
60437;BME280;46289;51.992;4.498;2023-04-09T13:48:30;102530.53;;;16.51;51.13
60437;BME280;46289;51.992;4.498;2023-04-09T13:50:36;102525.25;;;16.73;51.43
60437;BME280;46289;51.992;4.498;2023-04-09T13:52:46;102514.88;;;16.91;50.50
60437;BME280;46289;51.992;4.498;2023-04-09T13:54:52;102518.25;;;16.94;48.89
60437;BME280;46289;51.992;4.498;2023-04-09T13:56:57;102514.66;;;16.95;50.81
60437;BME280;46289;51.992;4.498;2023-04-09T13:59:06;102519.00;;;16.52;51.21
60437;BME280;46289;51.992;4.498;2023-04-09T14:01:16;102519.00;;;16.29;51.81
60437;BME280;46289;51.992;4.498;2023-04-09T14:03:26;102513.25;;;16.17;51.08
60437;BME280;46289;51.992;4.498;2023-04-09T14:05:31;102507.84;;;16.42;50.15
60437;BME280;46289;51.992;4.498;2023-04-09T14:07:37;102506.44;;;16.79;50.67
60437;BME280;46289;51.992;4.498;2023-04-09T14:09:52;102501.16;;;16.56;51.50
60437;BME280;46289;51.992;4.498;2023-04-09T14:11:58;102498.88;;;16.46;50.87
60437;BME280;46289;51.992;4.498;2023-04-09T14:14:05;102487.84;;;16.57;49.60
60437;BME280;46289;51.992;4.498;2023-04-09T14:16:11;102478.88;;;16.60;50.57
60437;BME280;46289;51.992;4.498;2023-04-09T14:19:28;102456.69;;;16.84;49.56
60437;BME280;46289;51.992;4.498;2023-04-09T14:21:47;102463.06;;;16.80;49.24
60437;BME280;46289;51.992;4.498;2023-04-09T14:23:54;102457.09;;;16.74;49.86
60437;BME280;46289;51.992;4.498;2023-04-09T14:26:02;102472.72;;;17.03;49.95
60437;BME280;46289;51.992;4.498;2023-04-09T14:28:10;102470.03;;;17.25;49.60
60437;BME280;46289;51.992;4.498;2023-04-09T14:30:18;102467.28;;;17.27;49.32
60437;BME280;46289;51.992;4.498;2023-04-09T14:32:23;102451.97;;;17.54;49.00
60437;BME280;46289;51.992;4.498;2023-04-09T14:34:29;102443.44;;;17.66;48.42